»·PEaware :: N5PX L35-KSNA

N5PX :: L35-KSNA

FLIGHT INFORMATION

Flight Status: Arrived
Operator: Privately registered:
United States
More flights under this callsign
Pilot: Daniel P. (20187)
Aircraft: BEECH AIRCRAFT SUPER KING AIR 350
(B350)
More flights by this aircraft type
Origin: L35 Big Bear City
United States
Destination: KSNA John Wayne-Orange Co
United States
More flights between these airports :: More routes between these airports
Route: +DAWNA KAYOH7
File this flight plan on PilotEdge
Remarks:
Altitude:
(Current/Filed)
10,000ft
Speed:
(Current/Filed)
240kts
Departed: 11-Feb-20 02:40 PM
Arrived: 11-Feb-20 03:16 PM
Distance/Time
Traveled:
54nm/0:36
Distance/Time
To Go:
Arrived

Flight Plot

Page will automatically refresh every two minutes.

Flight plan parsing failed; only flown route is shown


Map Options




Map Legend


Flown Route
Filed Route
Departure Airport
Arrival Airport
Navaid (VOR, NDB)
Fix

Horizontal Profiles

Position Reports

Time Latitude Longitude Heading Altitude Ground
Speed
11-Feb-20 14:32 34.262970 -116.858296 196 6755ft 0kts
11-Feb-20 14:33 34.262878 -116.858339 209 6755ft 0kts
11-Feb-20 14:34 34.262843 -116.855667 90 6755ft 10kts
11-Feb-20 14:35 34.262862 -116.852120 91 6755ft 9kts
11-Feb-20 14:36 34.263272 -116.848553 88 6755ft 12kts
11-Feb-20 14:37 34.263373 -116.846455 18 6755ft 0kts
11-Feb-20 14:38 34.263703 -116.846436 350 6755ft 4kts
11-Feb-20 14:39 34.263694 -116.863312 266 6871ft 143kts
11-Feb-20 14:40 34.263904 -116.908210 267 9440ft 127kts
11-Feb-20 14:41 34.264549 -116.955596 267 10978ft 146kts
11-Feb-20 14:42 34.264380 -117.014653 267 11009ft 193kts
11-Feb-20 14:43 34.263835 -117.082877 267 11001ft 209kts
11-Feb-20 14:44 34.310851 -117.112130 24 11006ft 270kts
11-Feb-20 14:45 34.337038 -117.027114 81 11003ft 284kts
11-Feb-20 14:46 34.349650 -116.932089 81 11001ft 286kts
11-Feb-20 14:47 34.348791 -116.839081 130 10993ft 273kts
11-Feb-20 14:48 34.288320 -116.827357 222 11003ft 224kts
11-Feb-20 14:49 34.270646 -116.894463 266 10999ft 219kts
11-Feb-20 14:50 34.269054 -116.968358 266 11000ft 219kts
11-Feb-20 14:51 34.267131 -117.041904 266 10997ft 219kts
11-Feb-20 14:52 34.247564 -117.108784 221 10952ft 225kts
11-Feb-20 14:53 34.184021 -117.124536 195 10954ft 237kts
11-Feb-20 14:54 34.117996 -117.135185 194 10955ft 243kts
11-Feb-20 14:55 34.049956 -117.145307 194 10952ft 249kts
11-Feb-20 14:56 33.981172 -117.155528 193 10581ft 249kts
11-Feb-20 14:57 33.913172 -117.165544 192 9560ft 244kts
11-Feb-20 14:58 33.844311 -117.175746 192 8858ft 254kts
11-Feb-20 14:59 33.786100 -117.207639 238 8117ft 225kts
11-Feb-20 15:00 33.777270 -117.277202 269 7943ft 201kts
11-Feb-20 15:01 33.778154 -117.342314 269 7946ft 189kts
11-Feb-20 15:02 33.778778 -117.404536 268 7960ft 183kts
11-Feb-20 15:03 33.779349 -117.465495 269 7945ft 181kts
11-Feb-20 15:04 33.779860 -117.526267 268 7719ft 185kts
11-Feb-20 15:06 33.788689 -117.588099 292 6947ft 191kts
11-Feb-20 15:07 33.810127 -117.640464 292 6938ft 159kts
11-Feb-20 15:08 33.830414 -117.688738 290 6536ft 177kts
11-Feb-20 15:09 33.853241 -117.746111 291 5711ft 199kts
11-Feb-20 15:10 33.869521 -117.808954 242 4773ft 193kts
11-Feb-20 15:11 33.825863 -117.816395 171 3778ft 168kts
11-Feb-20 15:12 33.781671 -117.815024 181 3089ft 142kts
11-Feb-20 15:13 33.744003 -117.826643 202 2214ft 143kts
11-Feb-20 15:14 33.711310 -117.846423 205 951ft 126kts
11-Feb-20 15:15 33.682041 -117.864809 205 90ft 109kts
11-Feb-20 15:16 33.672242 -117.871622 256 61ft 0kts
11-Feb-20 15:17 33.672218 -117.871748 258 61ft 0kts
11-Feb-20 15:18 33.672218 -117.871748 258 61ft 0kts
11-Feb-20 15:19 33.672955 -117.872052 27 61ft 13kts
11-Feb-20 15:20 33.674475 -117.871839 199 61ft 3kts
11-Feb-20 15:21 33.674657 -117.872039 31 61ft 0kts
11-Feb-20 15:22 33.674657 -117.872039 31 61ft 0kts
11-Feb-20 15:23 34.262829 -116.858342 150 6755ft 2kts
11-Feb-20 15:24 34.262837 -116.855151 89 6755ft 10kts
11-Feb-20 15:25 34.263000 -116.851738 34 6755ft 8kts
11-Feb-20 15:25 34.263373 -116.846455 18 6755ft 0kts
11-Feb-20 15:27 34.263741 -116.861472 269 6822ft 140kts
11-Feb-20 15:28 33.830451 -117.817343 170 3902ft 167kts

Navigation Log

Ident Type
Flight plan parsing failed, navigation log unavailable